createdAt,value
2022-09-05T00:02:49.375Z,37.06
2022-09-05T00:05:32.243Z,37.12
2022-09-05T00:08:19.668Z,37.25
2022-09-05T00:11:41.803Z,37.26
2022-09-05T00:13:49.108Z,37.22
2022-09-05T00:16:43.959Z,37.40
2022-09-05T00:22:25.810Z,37.32
2022-09-05T00:24:32.281Z,37.19
2022-09-05T00:25:39.055Z,37.35
2022-09-05T00:28:27.583Z,37.30
2022-09-05T00:31:55.559Z,37.34
2022-09-05T00:34:47.120Z,37.19
2022-09-05T00:37:26.968Z,37.19
2022-09-05T00:40:05.468Z,37.30
2022-09-05T00:42:45.629Z,37.27
2022-09-05T00:45:19.840Z,37.49
2022-09-05T00:48:18.786Z,37.49
2022-09-05T00:51:04.527Z,37.11
2022-09-05T00:54:15.016Z,37.35
2022-09-05T00:56:48.128Z,37.38
2022-09-05T00:59:59.053Z,37.26
2022-09-05T01:02:51.373Z,37.68
2022-09-05T01:05:49.675Z,37.26
2022-09-05T01:08:21.834Z,37.64
2022-09-05T01:11:05.100Z,37.29
2022-09-05T01:13:53.022Z,37.47
2022-09-05T01:16:45.146Z,37.49
2022-09-05T01:19:45.494Z,37.66
2022-09-05T01:22:39.819Z,37.35
2022-09-05T01:25:31.812Z,37.41
2022-09-05T01:29:13.762Z,37.76
2022-09-05T01:31:05.067Z,37.66
2022-09-05T01:33:44.242Z,37.59
2022-09-05T01:36:34.915Z,37.50
2022-09-05T01:40:14.549Z,37.88
2022-09-05T01:42:47.617Z,37.64
2022-09-05T01:45:46.168Z,37.70
2022-09-05T01:48:32.178Z,37.77
2022-09-05T01:51:29.165Z,37.83
2022-09-05T01:54:23.876Z,37.49
2022-09-05T01:57:11.465Z,37.86
2022-09-05T01:59:58.109Z,37.54
2022-09-05T02:02:50.450Z,37.53
2022-09-05T02:05:47.442Z,37.61
2022-09-05T02:08:15.692Z,37.87
2022-09-05T02:11:07.896Z,37.85
2022-09-05T02:13:34.399Z,37.70
2022-09-05T02:16:06.917Z,37.95
2022-09-05T02:18:36.195Z,37.81
2022-09-05T02:21:05.685Z,37.79
2022-09-05T02:23:41.658Z,38.15
2022-09-05T02:26:18.942Z,38.07
2022-09-05T02:28:55.062Z,37.69
2022-09-05T02:31:43.892Z,38.04
2022-09-05T02:34:21.577Z,37.50
2022-09-05T02:37:00.727Z,37.85
2022-09-05T02:45:01.649Z,38.03
2022-09-05T02:45:20.775Z,38.03
2022-09-05T02:46:08.371Z,37.88
2022-09-05T02:49:00.434Z,37.85
2022-09-05T02:57:29.555Z,37.76
2022-09-05T02:57:35.921Z,38.08
2022-09-05T02:58:07.915Z,37.80
2022-09-05T03:00:40.204Z,38.25
2022-09-05T03:03:28.270Z,38.28
2022-09-05T03:06:34.918Z,38.57
2022-09-05T03:09:17.186Z,38.09
2022-09-05T03:12:07.199Z,38.12
2022-09-05T03:15:27.321Z,38.37
2022-09-05T03:18:27.991Z,38.18
2022-09-05T03:21:22.131Z,38.48
2022-09-05T03:24:15.932Z,38.34
2022-09-05T03:27:08.523Z,38.26
2022-09-05T03:29:58.886Z,38.25
2022-09-05T03:32:49.060Z,38.38
2022-09-05T03:35:34.129Z,38.46
2022-09-05T03:38:21.655Z,38.51
2022-09-05T03:41:12.740Z,38.70
2022-09-05T03:44:13.228Z,38.79
2022-09-05T03:46:46.545Z,38.51
2022-09-05T03:52:48.433Z,38.55
2022-09-05T03:57:10.996Z,38.82
2022-09-05T03:57:26.749Z,38.47
2022-09-05T03:59:25.639Z,38.35
2022-09-05T04:02:59.987Z,38.83
2022-09-05T04:08:17.537Z,38.61
2022-09-05T04:08:24.161Z,38.87
2022-09-05T04:11:08.853Z,38.71
2022-09-05T04:14:00.793Z,38.74
2022-09-05T04:16:33.323Z,39.03
2022-09-05T04:19:12.377Z,38.88
2022-09-05T04:21:44.521Z,38.62
2022-09-05T04:24:27.916Z,38.89
2022-09-05T04:27:20.491Z,38.70
2022-09-05T04:30:04.993Z,38.63
2022-09-05T04:32:58.236Z,38.80
2022-09-05T04:35:46.657Z,38.91
2022-09-05T04:38:36.408Z,38.80
2022-09-05T04:41:12.200Z,38.88
2022-09-05T04:44:01.362Z,38.99
2022-09-05T04:46:48.434Z,38.81
2022-09-05T04:49:18.555Z,39.03
2022-09-05T04:52:00.087Z,39.09
2022-09-05T04:54:48.937Z,38.99
2022-09-05T04:57:25.481Z,39.17
2022-09-05T05:05:58.697Z,38.87
2022-09-05T05:06:12.754Z,38.98
2022-09-05T05:08:57.078Z,38.88
2022-09-05T05:16:23.826Z,38.90
2022-09-05T05:18:11.157Z,39.04
2022-09-05T05:18:11.815Z,39.19
2022-09-05T05:20:51.097Z,38.87
2022-09-05T05:23:19.248Z,39.36
2022-09-05T05:25:55.809Z,38.91
2022-09-05T05:28:28.360Z,38.85
2022-09-05T05:30:58.316Z,38.89
2022-09-05T05:33:28.696Z,38.87
2022-09-05T05:36:01.493Z,39.25
2022-09-05T05:38:34.089Z,39.21
2022-09-05T05:41:05.452Z,38.96
2022-09-05T05:43:39.391Z,39.63
2022-09-05T05:46:12.051Z,39.22
2022-09-05T05:48:40.601Z,39.51
2022-09-05T05:51:38.312Z,39.80
2022-09-05T05:54:46.852Z,39.37
2022-09-05T05:57:29.806Z,39.33
2022-09-05T06:00:07.000Z,39.53
2022-09-05T06:03:24.722Z,39.66
2022-09-05T06:05:44.032Z,39.44
2022-09-05T06:13:16.315Z,39.43
2022-09-05T06:14:51.591Z,39.63
2022-09-05T06:15:00.800Z,39.33
2022-09-05T06:17:48.690Z,39.92
2022-09-05T06:22:10.528Z,40.20
2022-09-05T06:23:51.055Z,40.37
2022-09-05T06:26:32.754Z,39.98
2022-09-05T06:29:24.483Z,40.13
2022-09-05T06:32:26.646Z,40.16
2022-09-05T06:35:14.504Z,40.12
2022-09-05T06:37:46.651Z,39.84
2022-09-05T06:40:13.248Z,39.82
2022-09-05T06:43:05.079Z,39.89
2022-09-05T06:46:11.513Z,39.88
2022-09-05T06:49:30.034Z,39.99
2022-09-05T06:52:27.856Z,40.11
2022-09-05T06:55:00.272Z,40.20
2022-09-05T06:57:54.588Z,40.21
2022-09-05T07:00:24.303Z,39.88
2022-09-05T07:03:00.788Z,40.32
2022-09-05T07:05:40.044Z,40.18
2022-09-05T07:08:34.966Z,40.07
2022-09-05T07:11:15.600Z,40.15
2022-09-05T07:13:56.579Z,40.06
2022-09-05T07:16:41.760Z,40.30
2022-09-05T07:19:25.504Z,40.15
2022-09-05T07:22:46.223Z,40.32
2022-09-05T07:25:08.706Z,40.37
2022-09-05T07:27:42.000Z,40.24
2022-09-05T07:30:25.489Z,40.26
2022-09-05T07:32:54.637Z,40.15
2022-09-05T07:35:42.243Z,39.83
2022-09-05T07:38:16.079Z,39.99
2022-09-05T07:40:58.073Z,40.30
2022-09-05T07:43:32.061Z,39.84
2022-09-05T07:46:17.325Z,40.00
2022-09-05T07:48:47.626Z,40.20
2022-09-05T07:56:54.953Z,39.87
2022-09-05T07:57:00.271Z,39.82
2022-09-05T08:00:02.176Z,40.05
2022-09-05T08:02:28.743Z,39.97
2022-09-05T08:05:02.542Z,39.86
2022-09-05T08:07:49.479Z,39.71
2022-09-05T08:11:05.639Z,39.91
2022-09-05T08:13:27.285Z,40.07
2022-09-05T08:16:09.837Z,39.83
2022-09-05T08:18:42.822Z,39.87
2022-09-05T08:21:12.299Z,40.21
2022-09-05T08:23:49.844Z,40.13
2022-09-05T08:26:21.194Z,39.86
2022-09-05T08:29:17.821Z,40.12
2022-09-05T08:31:52.621Z,39.70
2022-09-05T08:34:29.752Z,40.10
2022-09-05T08:37:21.220Z,39.86
2022-09-05T08:40:10.293Z,39.96
2022-09-05T08:46:32.176Z,39.92
2022-09-05T08:46:45.101Z,40.10
2022-09-05T08:49:32.224Z,40.47
2022-09-05T08:52:09.432Z,40.35
2022-09-05T08:54:47.085Z,40.60
2022-09-05T08:57:21.461Z,40.45
2022-09-05T09:00:04.302Z,40.37
2022-09-05T09:03:10.285Z,40.72
2022-09-05T09:06:13.210Z,40.83
2022-09-05T09:09:13.719Z,40.44
2022-09-05T09:11:48.697Z,40.80
2022-09-05T09:14:45.792Z,40.57
2022-09-05T09:17:21.807Z,40.85
2022-09-05T09:20:13.297Z,40.86
2022-09-05T09:22:59.716Z,41.02
2022-09-05T09:25:43.242Z,40.53
2022-09-05T09:28:48.344Z,41.00
2022-09-05T09:31:37.331Z,40.80
2022-09-05T09:34:25.802Z,40.86
2022-09-05T09:37:17.009Z,40.96
2022-09-05T09:40:14.395Z,40.98
2022-09-05T09:43:14.320Z,40.96
2022-09-05T09:45:41.483Z,40.96
2022-09-05T09:48:10.927Z,40.94
2022-09-05T09:51:08.556Z,40.59
2022-09-05T09:54:04.403Z,40.48
2022-09-05T09:56:33.676Z,40.58
2022-09-05T09:59:17.973Z,40.52
2022-09-05T10:04:17.434Z,40.30
2022-09-05T10:10:38.669Z,40.36
2022-09-05T10:10:53.342Z,40.67
2022-09-05T10:11:54.189Z,40.83
2022-09-05T10:14:56.486Z,40.46
2022-09-05T10:17:38.960Z,40.10
2022-09-05T10:20:43.399Z,40.17
2022-09-05T10:23:24.941Z,40.25
2022-09-05T10:26:10.245Z,40.43
2022-09-05T10:29:38.071Z,40.26
2022-09-05T10:35:11.771Z,40.20
2022-09-05T10:35:21.388Z,39.94
2022-09-05T10:38:11.847Z,40.12
2022-09-05T10:41:14.666Z,40.12
2022-09-05T10:43:31.738Z,40.24
2022-09-05T10:46:01.082Z,40.02
2022-09-05T10:48:44.710Z,39.84
2022-09-05T10:51:27.080Z,39.99
2022-09-05T10:54:12.864Z,39.75
2022-09-05T10:56:50.785Z,39.67
2022-09-05T11:02:28.887Z,39.65
2022-09-05T11:02:33.508Z,39.96
2022-09-05T11:05:04.877Z,39.74
2022-09-05T11:07:47.557Z,39.62
2022-09-05T11:10:21.109Z,39.59
2022-09-05T11:12:57.351Z,39.83
2022-09-05T11:15:33.296Z,39.37
2022-09-05T11:18:06.406Z,39.47
2022-09-05T11:21:04.928Z,39.59
2022-09-05T11:23:36.100Z,39.71
2022-09-05T11:26:27.031Z,39.50
2022-09-05T11:29:27.838Z,39.52
2022-09-05T11:36:44.334Z,39.69
2022-09-05T11:39:51.546Z,39.50
2022-09-05T11:39:54.633Z,39.67
2022-09-05T11:41:38.953Z,39.39
2022-09-05T11:44:25.665Z,39.31
2022-09-05T11:47:28.009Z,39.43
2022-09-05T11:50:09.304Z,39.47
2022-09-05T11:52:59.473Z,39.23
2022-09-05T11:55:57.906Z,39.38
2022-09-05T11:58:49.363Z,39.22
2022-09-05T12:01:41.438Z,39.28
2022-09-05T12:04:46.360Z,39.02
2022-09-05T12:07:49.242Z,39.13
2022-09-05T12:10:47.538Z,39.25
2022-09-05T12:13:34.808Z,39.09
2022-09-05T12:16:08.576Z,39.29
2022-09-05T12:19:19.217Z,39.12
2022-09-05T12:22:12.001Z,38.93
2022-09-05T12:25:26.595Z,39.16
2022-09-05T12:29:25.907Z,39.20
2022-09-05T12:31:07.129Z,39.21
2022-09-05T12:36:01.340Z,39.28
2022-09-05T12:40:18.398Z,38.94
2022-09-05T12:41:34.321Z,39.22
2022-09-05T12:43:14.394Z,39.03
2022-09-05T12:45:56.333Z,39.11
2022-09-05T12:48:39.147Z,39.00
2022-09-05T12:51:08.926Z,39.34
2022-09-05T12:53:51.569Z,39.13
2022-09-05T13:02:13.338Z,39.29
2022-09-05T13:03:04.086Z,39.24
2022-09-05T13:03:06.314Z,39.19
2022-09-05T13:05:26.916Z,39.23
2022-09-05T13:07:58.259Z,39.21
2022-09-05T13:11:32.217Z,39.35
2022-09-05T13:15:00.654Z,39.08
2022-09-05T13:16:23.281Z,38.94
2022-09-05T13:18:53.638Z,38.99
2022-09-05T13:21:25.976Z,38.84
2022-09-05T13:24:14.509Z,38.71
2022-09-05T13:26:57.611Z,38.57
2022-09-05T13:29:52.550Z,38.50
2022-09-05T13:38:15.467Z,38.55
2022-09-05T13:38:20.328Z,38.35
2022-09-05T13:38:47.806Z,38.41
2022-09-05T13:41:27.109Z,38.54
2022-09-05T13:44:00.428Z,38.37
2022-09-05T13:47:29.441Z,38.21
2022-09-05T13:50:17.434Z,38.55
2022-09-05T13:52:54.922Z,38.41
2022-09-05T13:55:25.468Z,38.40
2022-09-05T13:58:18.699Z,38.40
2022-09-05T14:01:01.073Z,38.45
2022-09-05T14:03:56.073Z,38.17
2022-09-05T14:06:47.825Z,38.35
2022-09-05T14:09:40.995Z,38.34
2022-09-05T14:12:37.264Z,38.15
2022-09-05T14:15:09.362Z,38.33
2022-09-05T14:17:53.962Z,38.36
2022-09-05T14:20:43.067Z,38.43
2022-09-05T14:23:13.507Z,38.48
2022-09-05T14:25:47.812Z,38.43
2022-09-05T14:28:22.013Z,38.46
2022-09-05T14:35:15.040Z,38.63
2022-09-05T14:37:45.869Z,38.25
2022-09-05T14:37:48.498Z,38.41
2022-09-05T14:40:30.547Z,38.31
2022-09-05T14:43:10.109Z,38.27
2022-09-05T14:46:02.414Z,38.43
2022-09-05T14:48:59.719Z,38.25
2022-09-05T14:51:36.043Z,38.41
2022-09-05T15:01:13.339Z,38.66
2022-09-05T15:02:58.669Z,38.24
2022-09-05T15:03:03.657Z,38.26
2022-09-05T15:05:46.370Z,38.06
2022-09-05T15:10:06.457Z,38.17
2022-09-05T15:12:16.423Z,38.00
2022-09-05T15:14:03.506Z,38.10
2022-09-05T15:16:31.877Z,38.21
2022-09-05T15:18:58.533Z,38.41
2022-09-05T15:21:33.691Z,38.29
2022-09-05T15:24:21.558Z,38.46
2022-09-05T15:26:57.216Z,38.27
2022-09-05T15:29:26.717Z,38.04
2022-09-05T15:32:11.911Z,38.43
2022-09-05T15:34:39.254Z,38.19
2022-09-05T15:37:30.637Z,38.18
2022-09-05T15:40:02.275Z,38.05
2022-09-05T15:42:37.387Z,38.01
2022-09-05T15:45:11.117Z,38.15
2022-09-05T15:47:39.647Z,38.07
2022-09-05T15:50:22.201Z,38.16
2022-09-05T15:52:53.550Z,37.97
2022-09-05T15:55:23.593Z,38.17
2022-09-05T15:57:56.338Z,38.17
2022-09-05T16:00:46.135Z,38.05
2022-09-05T16:04:53.005Z,38.13
2022-09-05T16:10:30.983Z,38.13
2022-09-05T16:10:38.779Z,38.36
2022-09-05T16:15:07.160Z,38.00
2022-09-05T16:23:20.434Z,38.08
2022-09-05T16:23:30.266Z,38.11
2022-09-05T16:23:41.787Z,38.13
2022-09-05T16:26:25.038Z,38.05
2022-09-05T16:28:58.942Z,38.07
2022-09-05T16:31:49.079Z,38.14
2022-09-05T16:34:35.847Z,38.15
2022-09-05T16:37:15.319Z,38.05
2022-09-05T16:39:48.803Z,38.04
2022-09-05T16:42:23.953Z,38.32
2022-09-05T16:45:39.717Z,38.10
2022-09-05T16:48:24.792Z,38.25
2022-09-05T16:50:57.523Z,38.07
2022-09-05T16:53:35.814Z,38.01
2022-09-05T16:56:06.954Z,38.12
2022-09-05T16:58:48.762Z,38.25
2022-09-05T17:01:34.656Z,38.10
2022-09-05T17:04:10.393Z,38.30
2022-09-05T17:06:53.167Z,38.09
2022-09-05T17:09:24.916Z,38.14
2022-09-05T17:12:17.158Z,38.21
2022-09-05T17:14:48.808Z,38.34
2022-09-05T17:18:19.434Z,38.03
2022-09-05T17:20:14.597Z,38.27
2022-09-05T17:24:47.821Z,38.04
2022-09-05T17:29:29.476Z,38.13
2022-09-05T17:30:27.674Z,38.49
2022-09-05T17:31:55.234Z,38.40
2022-09-05T17:34:44.528Z,38.32
2022-09-05T17:37:20.135Z,38.25
2022-09-05T17:40:17.813Z,38.30
2022-09-05T17:43:03.101Z,38.21
2022-09-05T17:45:45.063Z,38.26
2022-09-05T17:48:18.528Z,38.47
2022-09-05T17:50:54.101Z,38.54
2022-09-05T17:53:24.936Z,38.49
2022-09-05T17:55:51.942Z,38.61
2022-09-05T17:58:22.539Z,38.67
2022-09-05T18:00:51.950Z,38.81
2022-09-05T18:03:45.921Z,38.55
2022-09-05T18:06:15.239Z,38.73
2022-09-05T18:08:44.924Z,38.34
2022-09-05T18:11:30.661Z,38.33
2022-09-05T18:14:06.564Z,38.51
2022-09-05T18:16:37.216Z,38.39
2022-09-05T18:19:32.141Z,38.26
2022-09-05T18:22:10.194Z,38.61
2022-09-05T18:24:38.701Z,38.40
2022-09-05T18:27:37.874Z,38.62
2022-09-05T18:30:16.750Z,38.41
2022-09-05T18:32:54.292Z,38.74
2022-09-05T18:35:42.733Z,38.77
2022-09-05T18:38:18.016Z,38.81
2022-09-05T18:40:57.032Z,38.58
2022-09-05T18:43:38.850Z,38.53
2022-09-05T18:46:18.410Z,38.57
2022-09-05T18:50:15.805Z,38.68
2022-09-05T18:52:17.307Z,38.82
2022-09-05T18:56:09.902Z,38.79
2022-09-05T18:58:00.625Z,38.66
2022-09-05T19:00:44.557Z,38.69
2022-09-05T19:03:18.265Z,38.62
2022-09-05T19:06:34.590Z,38.59
2022-09-05T19:09:03.776Z,38.68
2022-09-05T19:11:52.730Z,38.58
2022-09-05T19:14:47.643Z,38.73
2022-09-05T19:17:20.262Z,38.69
2022-09-05T19:20:32.402Z,38.63
2022-09-05T19:23:12.921Z,38.77
2022-09-05T19:25:47.302Z,38.63
2022-09-05T19:36:44.205Z,38.69
2022-09-05T19:36:57.589Z,38.93
2022-09-05T19:37:24.112Z,38.91
2022-09-05T19:37:29.363Z,38.85
2022-09-05T19:47:17.943Z,38.79
2022-09-05T19:47:26.131Z,38.72
2022-09-05T19:47:44.516Z,38.95
2022-09-05T19:51:12.355Z,38.97
2022-09-05T19:54:03.696Z,38.81
2022-09-05T19:56:44.444Z,38.75
2022-09-05T19:59:34.066Z,38.60
2022-09-05T20:02:02.026Z,38.70
2022-09-05T20:04:32.181Z,38.58
2022-09-05T20:06:59.097Z,38.56
2022-09-05T20:09:26.860Z,38.62
2022-09-05T20:11:58.185Z,38.59
2022-09-05T20:14:30.355Z,38.43
2022-09-05T20:17:01.413Z,38.41
2022-09-05T20:19:28.885Z,38.62
2022-09-05T20:22:12.787Z,38.71
2022-09-05T20:24:49.247Z,38.67
2022-09-05T20:27:16.977Z,38.53
2022-09-05T20:30:02.553Z,38.58
2022-09-05T20:32:39.291Z,38.61
2022-09-05T20:40:32.376Z,38.67
2022-09-05T20:43:18.387Z,38.95
2022-09-05T20:43:18.455Z,38.68
2022-09-05T20:43:53.702Z,38.87
2022-09-05T20:51:33.187Z,38.88
2022-09-05T20:54:21.959Z,38.93
2022-09-05T20:54:27.891Z,38.68
2022-09-05T20:54:56.820Z,38.84
2022-09-05T20:57:29.683Z,38.76
2022-09-05T21:00:05.432Z,38.84
2022-09-05T21:02:33.410Z,39.08
2022-09-05T21:05:20.671Z,38.87
2022-09-05T21:08:02.448Z,38.83
2022-09-05T21:10:33.972Z,38.83
2022-09-05T21:13:21.525Z,38.83
2022-09-05T21:15:53.588Z,39.09
2022-09-05T21:18:23.833Z,38.82
2022-09-05T21:21:14.620Z,38.93
2022-09-05T21:24:17.359Z,39.03
2022-09-05T21:26:46.475Z,38.86
2022-09-05T21:29:12.979Z,39.06
2022-09-05T21:31:54.819Z,38.92
2022-09-05T21:34:26.733Z,38.85
2022-09-05T21:37:06.528Z,39.08
2022-09-05T21:39:46.769Z,39.16
2022-09-05T21:43:18.905Z,39.16
2022-09-05T21:47:44.676Z,38.86
2022-09-05T21:48:03.114Z,39.04
2022-09-05T21:50:34.003Z,38.97
2022-09-05T21:54:22.433Z,38.78
2022-09-05T21:59:17.909Z,38.81
2022-09-05T21:59:30.399Z,38.96
2022-09-05T22:01:37.491Z,38.77
2022-09-05T22:04:11.426Z,39.08
2022-09-05T22:06:38.604Z,39.05
2022-09-05T22:09:11.431Z,38.71
2022-09-05T22:11:40.657Z,38.34
2022-09-05T22:14:08.983Z,38.56
2022-09-05T22:16:37.524Z,38.59
2022-09-05T22:19:11.776Z,38.67
2022-09-05T22:21:38.929Z,38.76
2022-09-05T22:24:08.876Z,38.90
2022-09-05T22:27:11.840Z,38.63
2022-09-05T22:29:34.535Z,38.66
2022-09-05T22:32:01.209Z,38.94
2022-09-05T22:34:30.860Z,38.70
2022-09-05T22:36:57.582Z,38.51
2022-09-05T22:39:36.400Z,38.66
2022-09-05T22:42:10.351Z,38.87
2022-09-05T22:44:39.024Z,38.88
2022-09-05T22:47:09.363Z,38.68
2022-09-05T22:49:36.593Z,38.53
2022-09-05T22:52:04.980Z,38.63
2022-09-05T22:54:31.544Z,38.61
2022-09-05T22:56:58.135Z,38.53
2022-09-05T22:59:24.703Z,38.86
2022-09-05T23:01:51.322Z,38.87
2022-09-05T23:04:18.012Z,38.51
2022-09-05T23:06:44.616Z,38.51
2022-09-05T23:09:11.187Z,38.56
2022-09-05T23:11:37.761Z,38.64
2022-09-05T23:14:04.339Z,38.46
2022-09-05T23:16:30.899Z,38.31
2022-09-05T23:18:57.621Z,38.39
2022-09-05T23:21:24.204Z,38.32
2022-09-05T23:23:50.864Z,38.36
2022-09-05T23:26:17.556Z,38.40
2022-09-05T23:28:44.207Z,38.37
2022-09-05T23:31:11.723Z,38.38
2022-09-05T23:33:40.172Z,38.10
2022-09-05T23:36:09.084Z,38.51
2022-09-05T23:38:36.057Z,38.38
2022-09-05T23:41:07.796Z,38.37
2022-09-05T23:43:34.900Z,38.36
2022-09-05T23:46:02.125Z,38.42
2022-09-05T23:48:29.323Z,38.42
2022-09-05T23:50:56.059Z,38.25
2022-09-05T23:53:22.910Z,38.17
2022-09-05T23:55:49.771Z,38.58
2022-09-05T23:58:16.552Z,38.34
